Terminal Aerodrome Forecast
Issued by NWS

Home | Current Version | Previous Version | Text Only | Print | Product List | Glossary On
Versions: 1 2 3 4 5 6 7 8 9 10 11 12 13 14
000
FTUS43 KAPX 261700
TAFAPN
TAF
KAPN 261739Z 2618/2718 20008KT P6SM SCT040
     FM262100 21008KT P6SM BKN028
     FM270100 VRB03KT P6SM BKN035
     FM270700 00000KT 1 1/2SM BR BKN005=

USA.gov is the U.S. government's official web portal to all federal, state and local government web resources and services.